sensor_id;sensor_type;location;lat;lon;timestamp;temperature;humidity
8178;DHT22;4130;48.740;9.132;2023-07-31T00:01:43;14.10;99.90
8178;DHT22;4130;48.740;9.132;2023-07-31T00:04:10;14.10;99.90
8178;DHT22;4130;48.740;9.132;2023-07-31T00:06:37;14.00;99.90
8178;DHT22;4130;48.740;9.132;2023-07-31T00:09:04;14.00;99.90
8178;DHT22;4130;48.740;9.132;2023-07-31T00:11:31;14.00;99.90
8178;DHT22;4130;48.740;9.132;2023-07-31T00:13:58;14.00;99.90
8178;DHT22;4130;48.740;9.132;2023-07-31T00:16:24;13.90;99.90
8178;DHT22;4130;48.740;9.132;2023-07-31T00:18:52;13.90;99.90
8178;DHT22;4130;48.740;9.132;2023-07-31T00:21:19;14.00;99.90
8178;DHT22;4130;48.740;9.132;2023-07-31T00:23:46;15.50;99.90
8178;DHT22;4130;48.740;9.132;2023-07-31T00:26:13;14.00;99.90
8178;DHT22;4130;48.740;9.132;2023-07-31T00:28:39;13.90;99.90
8178;DHT22;4130;48.740;9.132;2023-07-31T00:31:06;14.00;99.90
8178;DHT22;4130;48.740;9.132;2023-07-31T00:33:35;14.00;99.90
8178;DHT22;4130;48.740;9.132;2023-07-31T00:36:03;13.90;99.90
8178;DHT22;4130;48.740;9.132;2023-07-31T00:38:30;13.90;99.90
8178;DHT22;4130;48.740;9.132;2023-07-31T00:40:57;14.00;99.90
8178;DHT22;4130;48.740;9.132;2023-07-31T00:43:24;14.20;99.90
8178;DHT22;4130;48.740;9.132;2023-07-31T00:45:51;13.90;99.90
8178;DHT22;4130;48.740;9.132;2023-07-31T00:48:18;13.90;99.90
8178;DHT22;4130;48.740;9.132;2023-07-31T00:50:45;13.90;99.90
8178;DHT22;4130;48.740;9.132;2023-07-31T00:53:14;13.90;99.90
8178;DHT22;4130;48.740;9.132;2023-07-31T00:55:41;13.90;99.90
8178;DHT22;4130;48.740;9.132;2023-07-31T00:58:07;14.00;99.90
8178;DHT22;4130;48.740;9.132;2023-07-31T01:00:34;14.10;99.90
8178;DHT22;4130;48.740;9.132;2023-07-31T01:03:00;14.10;99.90
8178;DHT22;4130;48.740;9.132;2023-07-31T01:05:33;14.10;99.90
8178;DHT22;4130;48.740;9.132;2023-07-31T01:08:09;14.10;99.90
8178;DHT22;4130;48.740;9.132;2023-07-31T01:10:46;14.10;99.90
8178;DHT22;4130;48.740;9.132;2023-07-31T01:13:13;14.10;99.90
8178;DHT22;4130;48.740;9.132;2023-07-31T01:15:41;14.10;99.90
8178;DHT22;4130;48.740;9.132;2023-07-31T01:18:08;14.00;99.90
8178;DHT22;4130;48.740;9.132;2023-07-31T01:20:35;14.00;99.90
8178;DHT22;4130;48.740;9.132;2023-07-31T01:23:27;13.90;99.90
8178;DHT22;4130;48.740;9.132;2023-07-31T01:26:11;13.90;99.90
8178;DHT22;4130;48.740;9.132;2023-07-31T01:28:46;13.80;99.90
8178;DHT22;4130;48.740;9.132;2023-07-31T01:31:21;13.70;99.90
8178;DHT22;4130;48.740;9.132;2023-07-31T01:33:50;13.70;99.90
8178;DHT22;4130;48.740;9.132;2023-07-31T01:36:19;13.60;99.90
8178;DHT22;4130;48.740;9.132;2023-07-31T01:38:46;13.60;99.90
8178;DHT22;4130;48.740;9.132;2023-07-31T01:41:16;13.60;99.90
8178;DHT22;4130;48.740;9.132;2023-07-31T01:43:43;13.50;99.90
8178;DHT22;4130;48.740;9.132;2023-07-31T01:46:10;13.40;99.90
8178;DHT22;4130;48.740;9.132;2023-07-31T01:48:37;13.40;99.90
8178;DHT22;4130;48.740;9.132;2023-07-31T01:51:04;13.30;99.90
8178;DHT22;4130;48.740;9.132;2023-07-31T01:53:31;13.30;99.90
8178;DHT22;4130;48.740;9.132;2023-07-31T01:55:58;13.30;99.90
8178;DHT22;4130;48.740;9.132;2023-07-31T01:58:26;13.30;99.90
8178;DHT22;4130;48.740;9.132;2023-07-31T02:00:53;13.20;99.90
8178;DHT22;4130;48.740;9.132;2023-07-31T02:03:19;11.80;99.90
8178;DHT22;4130;48.740;9.132;2023-07-31T02:05:46;13.30;99.90
8178;DHT22;4130;48.740;9.132;2023-07-31T02:08:13;13.30;99.90
8178;DHT22;4130;48.740;9.132;2023-07-31T02:10:40;13.30;99.90
8178;DHT22;4130;48.740;9.132;2023-07-31T02:13:07;13.40;99.90
8178;DHT22;4130;48.740;9.132;2023-07-31T02:15:36;13.40;99.90
8178;DHT22;4130;48.740;9.132;2023-07-31T02:18:02;14.50;99.90
8178;DHT22;4130;48.740;9.132;2023-07-31T02:20:29;13.60;99.90
8178;DHT22;4130;48.740;9.132;2023-07-31T02:22:56;13.70;99.90
8178;DHT22;4130;48.740;9.132;2023-07-31T02:25:22;13.70;99.90
8178;DHT22;4130;48.740;9.132;2023-07-31T02:27:49;13.70;99.90
8178;DHT22;4130;48.740;9.132;2023-07-31T02:30:16;13.70;99.90
8178;DHT22;4130;48.740;9.132;2023-07-31T02:32:44;13.70;99.90
8178;DHT22;4130;48.740;9.132;2023-07-31T02:35:11;13.60;99.90
8178;DHT22;4130;48.740;9.132;2023-07-31T02:37:40;13.50;99.90
8178;DHT22;4130;48.740;9.132;2023-07-31T02:40:08;13.50;99.90
8178;DHT22;4130;48.740;9.132;2023-07-31T02:42:34;13.30;99.90
8178;DHT22;4130;48.740;9.132;2023-07-31T02:45:01;13.30;99.90
8178;DHT22;4130;48.740;9.132;2023-07-31T02:47:28;13.40;99.90
8178;DHT22;4130;48.740;9.132;2023-07-31T02:49:56;13.20;99.90
8178;DHT22;4130;48.740;9.132;2023-07-31T02:52:23;13.10;99.90
8178;DHT22;4130;48.740;9.132;2023-07-31T02:54:49;13.10;99.90
8178;DHT22;4130;48.740;9.132;2023-07-31T02:57:16;13.10;99.90
8178;DHT22;4130;48.740;9.132;2023-07-31T02:59:43;13.10;99.90
8178;DHT22;4130;48.740;9.132;2023-07-31T03:02:09;13.00;99.90
8178;DHT22;4130;48.740;9.132;2023-07-31T03:04:37;13.00;99.90
8178;DHT22;4130;48.740;9.132;2023-07-31T03:07:05;13.00;99.90
8178;DHT22;4130;48.740;9.132;2023-07-31T03:09:32;12.90;99.90
8178;DHT22;4130;48.740;9.132;2023-07-31T03:11:59;12.90;99.90
8178;DHT22;4130;48.740;9.132;2023-07-31T03:14:26;12.90;99.90
8178;DHT22;4130;48.740;9.132;2023-07-31T03:16:53;13.20;99.90
8178;DHT22;4130;48.740;9.132;2023-07-31T03:19:19;12.90;99.90
8178;DHT22;4130;48.740;9.132;2023-07-31T03:21:46;12.90;99.90
8178;DHT22;4130;48.740;9.132;2023-07-31T03:24:14;12.90;99.90
8178;DHT22;4130;48.740;9.132;2023-07-31T03:26:41;13.00;99.90
8178;DHT22;4130;48.740;9.132;2023-07-31T03:29:08;13.10;99.90
8178;DHT22;4130;48.740;9.132;2023-07-31T03:31:34;13.20;99.90
8178;DHT22;4130;48.740;9.132;2023-07-31T03:34:01;13.00;99.90
8178;DHT22;4130;48.740;9.132;2023-07-31T03:36:28;13.00;99.90
8178;DHT22;4130;48.740;9.132;2023-07-31T03:38:54;13.10;99.90
8178;DHT22;4130;48.740;9.132;2023-07-31T03:41:23;13.00;99.90
8178;DHT22;4130;48.740;9.132;2023-07-31T03:43:51;12.90;99.90
8178;DHT22;4130;48.740;9.132;2023-07-31T03:46:18;12.90;99.90
8178;DHT22;4130;48.740;9.132;2023-07-31T03:48:45;12.90;99.90
8178;DHT22;4130;48.740;9.132;2023-07-31T03:51:11;12.90;99.90
8178;DHT22;4130;48.740;9.132;2023-07-31T03:53:38;12.90;99.90
8178;DHT22;4130;48.740;9.132;2023-07-31T03:56:05;13.10;99.90
8178;DHT22;4130;48.740;9.132;2023-07-31T03:58:33;12.90;99.90
8178;DHT22;4130;48.740;9.132;2023-07-31T04:01:00;13.00;99.90
8178;DHT22;4130;48.740;9.132;2023-07-31T04:03:27;12.90;99.90
8178;DHT22;4130;48.740;9.132;2023-07-31T04:05:54;12.90;99.90
8178;DHT22;4130;48.740;9.132;2023-07-31T04:08:22;13.00;99.90
8178;DHT22;4130;48.740;9.132;2023-07-31T04:10:48;13.00;99.90
8178;DHT22;4130;48.740;9.132;2023-07-31T04:13:16;13.10;99.90
8178;DHT22;4130;48.740;9.132;2023-07-31T04:15:48;13.20;99.90
8178;DHT22;4130;48.740;9.132;2023-07-31T04:18:14;13.30;99.90
8178;DHT22;4130;48.740;9.132;2023-07-31T04:20:41;14.20;99.90
8178;DHT22;4130;48.740;9.132;2023-07-31T04:23:08;13.40;99.90
8178;DHT22;4130;48.740;9.132;2023-07-31T04:25:34;13.60;99.90
8178;DHT22;4130;48.740;9.132;2023-07-31T04:28:01;13.80;99.90
8178;DHT22;4130;48.740;9.132;2023-07-31T04:30:28;13.80;99.90
8178;DHT22;4130;48.740;9.132;2023-07-31T04:32:56;13.90;99.90
8178;DHT22;4130;48.740;9.132;2023-07-31T04:35:23;14.10;99.90
8178;DHT22;4130;48.740;9.132;2023-07-31T04:37:49;14.10;99.90
8178;DHT22;4130;48.740;9.132;2023-07-31T04:40:16;14.40;99.90
8178;DHT22;4130;48.740;9.132;2023-07-31T04:42:43;14.40;99.90
8178;DHT22;4130;48.740;9.132;2023-07-31T04:45:10;14.50;99.90
8178;DHT22;4130;48.740;9.132;2023-07-31T04:47:36;14.50;99.90
8178;DHT22;4130;48.740;9.132;2023-07-31T04:50:06;14.70;99.90
8178;DHT22;4130;48.740;9.132;2023-07-31T04:52:33;14.70;99.90
8178;DHT22;4130;48.740;9.132;2023-07-31T04:54:59;14.80;99.90
8178;DHT22;4130;48.740;9.132;2023-07-31T04:57:26;14.90;99.90
8178;DHT22;4130;48.740;9.132;2023-07-31T04:59:53;14.90;99.90
8178;DHT22;4130;48.740;9.132;2023-07-31T05:02:19;14.90;99.90
8178;DHT22;4130;48.740;9.132;2023-07-31T05:04:46;14.90;99.90
8178;DHT22;4130;48.740;9.132;2023-07-31T05:07:14;15.00;99.90
8178;DHT22;4130;48.740;9.132;2023-07-31T05:09:42;15.00;99.90
8178;DHT22;4130;48.740;9.132;2023-07-31T05:12:09;15.10;99.90
8178;DHT22;4130;48.740;9.132;2023-07-31T05:14:36;15.10;99.90
8178;DHT22;4130;48.740;9.132;2023-07-31T05:17:03;15.10;99.90
8178;DHT22;4130;48.740;9.132;2023-07-31T05:19:30;15.10;99.90
8178;DHT22;4130;48.740;9.132;2023-07-31T05:21:56;15.10;99.90
8178;DHT22;4130;48.740;9.132;2023-07-31T05:24:25;15.10;99.90
8178;DHT22;4130;48.740;9.132;2023-07-31T05:26:51;15.10;99.90
8178;DHT22;4130;48.740;9.132;2023-07-31T05:29:18;15.20;99.90
8178;DHT22;4130;48.740;9.132;2023-07-31T05:31:45;15.20;99.90
8178;DHT22;4130;48.740;9.132;2023-07-31T05:34:11;15.30;99.90
8178;DHT22;4130;48.740;9.132;2023-07-31T05:36:38;15.80;99.90
8178;DHT22;4130;48.740;9.132;2023-07-31T05:39:05;15.40;99.90
8178;DHT22;4130;48.740;9.132;2023-07-31T05:41:35;15.50;99.90
8178;DHT22;4130;48.740;9.132;2023-07-31T05:44:02;15.60;99.90
8178;DHT22;4130;48.740;9.132;2023-07-31T05:46:29;15.70;99.90
8178;DHT22;4130;48.740;9.132;2023-07-31T05:48:56;15.90;99.90
8178;DHT22;4130;48.740;9.132;2023-07-31T05:51:25;16.00;99.90
8178;DHT22;4130;48.740;9.132;2023-07-31T05:53:52;16.20;99.90
8178;DHT22;4130;48.740;9.132;2023-07-31T05:56:18;16.40;99.90
8178;DHT22;4130;48.740;9.132;2023-07-31T05:58:46;18.00;99.90
8178;DHT22;4130;48.740;9.132;2023-07-31T06:01:15;16.60;99.90
8178;DHT22;4130;48.740;9.132;2023-07-31T06:03:42;16.70;99.90
8178;DHT22;4130;48.740;9.132;2023-07-31T06:06:08;16.80;99.90
8178;DHT22;4130;48.740;9.132;2023-07-31T06:08:35;16.90;99.90
8178;DHT22;4130;48.740;9.132;2023-07-31T06:11:02;17.00;99.90
8178;DHT22;4130;48.740;9.132;2023-07-31T06:13:29;17.10;99.90
8178;DHT22;4130;48.740;9.132;2023-07-31T06:15:57;17.10;99.90
8178;DHT22;4130;48.740;9.132;2023-07-31T06:18:24;17.20;99.90
8178;DHT22;4130;48.740;9.132;2023-07-31T06:20:51;17.30;99.90
8178;DHT22;4130;48.740;9.132;2023-07-31T06:23:19;17.30;99.90
8178;DHT22;4130;48.740;9.132;2023-07-31T06:25:46;17.30;99.90
8178;DHT22;4130;48.740;9.132;2023-07-31T06:28:12;17.30;99.90
8178;DHT22;4130;48.740;9.132;2023-07-31T06:30:39;17.40;99.90
8178;DHT22;4130;48.740;9.132;2023-07-31T06:33:07;17.50;99.90
8178;DHT22;4130;48.740;9.132;2023-07-31T06:35:34;17.60;99.90
8178;DHT22;4130;48.740;9.132;2023-07-31T06:38:01;17.70;99.90
8178;DHT22;4130;48.740;9.132;2023-07-31T06:40:28;19.20;99.90
8178;DHT22;4130;48.740;9.132;2023-07-31T06:42:54;17.70;99.90
8178;DHT22;4130;48.740;9.132;2023-07-31T06:45:21;17.80;99.90
8178;DHT22;4130;48.740;9.132;2023-07-31T06:47:48;17.80;99.90
8178;DHT22;4130;48.740;9.132;2023-07-31T06:50:16;17.80;99.90
8178;DHT22;4130;48.740;9.132;2023-07-31T06:52:43;17.90;99.90
8178;DHT22;4130;48.740;9.132;2023-07-31T06:55:17;17.90;99.90
8178;DHT22;4130;48.740;9.132;2023-07-31T06:57:45;18.00;99.90
8178;DHT22;4130;48.740;9.132;2023-07-31T07:00:12;18.10;99.90
8178;DHT22;4130;48.740;9.132;2023-07-31T07:02:39;18.30;99.90
8178;DHT22;4130;48.740;9.132;2023-07-31T07:05:07;18.40;99.90
8178;DHT22;4130;48.740;9.132;2023-07-31T07:07:35;18.40;99.90
8178;DHT22;4130;48.740;9.132;2023-07-31T07:10:03;18.50;99.90
8178;DHT22;4130;48.740;9.132;2023-07-31T07:12:31;18.50;99.90
8178;DHT22;4130;48.740;9.132;2023-07-31T07:14:58;18.60;99.90
8178;DHT22;4130;48.740;9.132;2023-07-31T07:17:25;18.70;99.90
8178;DHT22;4130;48.740;9.132;2023-07-31T07:19:52;18.90;99.90
8178;DHT22;4130;48.740;9.132;2023-07-31T07:22:19;19.40;99.90
8178;DHT22;4130;48.740;9.132;2023-07-31T07:24:47;19.70;99.90
8178;DHT22;4130;48.740;9.132;2023-07-31T07:27:13;20.00;99.90
8178;DHT22;4130;48.740;9.132;2023-07-31T07:29:40;20.40;99.10
8178;DHT22;4130;48.740;9.132;2023-07-31T07:32:07;20.40;98.60
8178;DHT22;4130;48.740;9.132;2023-07-31T07:34:34;20.30;98.80
8178;DHT22;4130;48.740;9.132;2023-07-31T07:37:01;20.30;98.90
8178;DHT22;4130;48.740;9.132;2023-07-31T07:39:27;20.00;99.10
8178;DHT22;4130;48.740;9.132;2023-07-31T07:41:56;19.70;99.20
8178;DHT22;4130;48.740;9.132;2023-07-31T07:44:22;19.70;99.30
8178;DHT22;4130;48.740;9.132;2023-07-31T07:46:49;20.30;99.40
8178;DHT22;4130;48.740;9.132;2023-07-31T07:49:16;19.60;99.50
8178;DHT22;4130;48.740;9.132;2023-07-31T07:51:42;19.70;99.20
8178;DHT22;4130;48.740;9.132;2023-07-31T07:54:09;19.90;99.30
8178;DHT22;4130;48.740;9.132;2023-07-31T07:56:36;20.10;98.70
8178;DHT22;4130;48.740;9.132;2023-07-31T07:59:04;20.40;98.50
8178;DHT22;4130;48.740;9.132;2023-07-31T08:01:31;21.70;98.10
8178;DHT22;4130;48.740;9.132;2023-07-31T08:03:58;21.70;98.10
8178;DHT22;4130;48.740;9.132;2023-07-31T08:06:25;20.70;96.50
8178;DHT22;4130;48.740;9.132;2023-07-31T08:08:52;20.80;97.70
8178;DHT22;4130;48.740;9.132;2023-07-31T08:11:18;21.00;97.60
8178;DHT22;4130;48.740;9.132;2023-07-31T08:13:46;20.80;97.00
8178;DHT22;4130;48.740;9.132;2023-07-31T08:16:14;20.70;96.50
8178;DHT22;4130;48.740;9.132;2023-07-31T08:18:41;20.70;96.50
8178;DHT22;4130;48.740;9.132;2023-07-31T08:21:08;20.70;96.50
8178;DHT22;4130;48.740;9.132;2023-07-31T08:23:35;20.80;96.60
8178;DHT22;4130;48.740;9.132;2023-07-31T08:26:01;20.90;96.10
8178;DHT22;4130;48.740;9.132;2023-07-31T08:28:28;20.80;96.90
8178;DHT22;4130;48.740;9.132;2023-07-31T08:30:55;21.00;96.50
8178;DHT22;4130;48.740;9.132;2023-07-31T08:33:23;21.70;96.40
8178;DHT22;4130;48.740;9.132;2023-07-31T08:35:50;22.50;96.80
8178;DHT22;4130;48.740;9.132;2023-07-31T08:38:16;21.70;95.60
8178;DHT22;4130;48.740;9.132;2023-07-31T08:40:43;23.50;96.60
8178;DHT22;4130;48.740;9.132;2023-07-31T08:43:10;23.30;95.90
8178;DHT22;4130;48.740;9.132;2023-07-31T08:45:37;22.30;95.10
8178;DHT22;4130;48.740;9.132;2023-07-31T08:48:05;22.70;94.60
8178;DHT22;4130;48.740;9.132;2023-07-31T08:50:33;22.40;94.60
8178;DHT22;4130;48.740;9.132;2023-07-31T08:53:00;22.20;94.40
8178;DHT22;4130;48.740;9.132;2023-07-31T08:55:28;21.90;94.80
8178;DHT22;4130;48.740;9.132;2023-07-31T08:57:55;22.50;95.00
8178;DHT22;4130;48.740;9.132;2023-07-31T09:00:23;22.50;95.00
8178;DHT22;4130;48.740;9.132;2023-07-31T09:02:56;22.70;95.00
8178;DHT22;4130;48.740;9.132;2023-07-31T09:05:26;23.00;94.80
8178;DHT22;4130;48.740;9.132;2023-07-31T09:07:56;24.50;94.60
8178;DHT22;4130;48.740;9.132;2023-07-31T09:10:23;23.50;94.20
8178;DHT22;4130;48.740;9.132;2023-07-31T09:12:51;24.10;94.60
8178;DHT22;4130;48.740;9.132;2023-07-31T09:15:19;24.60;93.50
8178;DHT22;4130;48.740;9.132;2023-07-31T09:17:46;24.50;92.60
8178;DHT22;4130;48.740;9.132;2023-07-31T09:20:14;24.20;92.60
8178;DHT22;4130;48.740;9.132;2023-07-31T09:22:42;23.80;93.20
8178;DHT22;4130;48.740;9.132;2023-07-31T09:25:18;23.40;93.40
8178;DHT22;4130;48.740;9.132;2023-07-31T09:27:46;22.90;93.10
8178;DHT22;4130;48.740;9.132;2023-07-31T09:30:13;22.40;93.20
8178;DHT22;4130;48.740;9.132;2023-07-31T09:32:40;21.90;94.20
8178;DHT22;4130;48.740;9.132;2023-07-31T09:35:13;21.60;93.80
8178;DHT22;4130;48.740;9.132;2023-07-31T09:37:40;21.50;94.20
8178;DHT22;4130;48.740;9.132;2023-07-31T09:40:08;21.30;94.80
8178;DHT22;4130;48.740;9.132;2023-07-31T09:42:36;21.20;94.30
8178;DHT22;4130;48.740;9.132;2023-07-31T09:45:10;21.20;94.70
8178;DHT22;4130;48.740;9.132;2023-07-31T09:47:37;21.10;94.80
8178;DHT22;4130;48.740;9.132;2023-07-31T09:50:07;21.30;94.40
8178;DHT22;4130;48.740;9.132;2023-07-31T09:52:34;22.00;95.20
8178;DHT22;4130;48.740;9.132;2023-07-31T09:55:05;23.00;94.40
8178;DHT22;4130;48.740;9.132;2023-07-31T09:57:31;23.80;93.30
8178;DHT22;4130;48.740;9.132;2023-07-31T10:00:01;24.40;93.20
8178;DHT22;4130;48.740;9.132;2023-07-31T10:02:28;24.30;92.90
8178;DHT22;4130;48.740;9.132;2023-07-31T10:04:57;24.30;92.60
8178;DHT22;4130;48.740;9.132;2023-07-31T10:07:29;23.70;92.90
8178;DHT22;4130;48.740;9.132;2023-07-31T10:09:57;23.70;92.80
8178;DHT22;4130;48.740;9.132;2023-07-31T10:12:26;23.60;92.90
8178;DHT22;4130;48.740;9.132;2023-07-31T10:14:54;23.70;93.10
8178;DHT22;4130;48.740;9.132;2023-07-31T10:17:23;24.20;92.80
8178;DHT22;4130;48.740;9.132;2023-07-31T10:19:50;24.30;92.40
8178;DHT22;4130;48.740;9.132;2023-07-31T10:22:20;24.30;92.50
8178;DHT22;4130;48.740;9.132;2023-07-31T10:24:48;24.20;92.40
8178;DHT22;4130;48.740;9.132;2023-07-31T10:27:16;24.20;92.60
8178;DHT22;4130;48.740;9.132;2023-07-31T10:29:44;24.30;92.50
8178;DHT22;4130;48.740;9.132;2023-07-31T10:32:13;24.70;91.80
8178;DHT22;4130;48.740;9.132;2023-07-31T10:34:43;24.80;91.90
8178;DHT22;4130;48.740;9.132;2023-07-31T10:37:20;24.90;91.90
8178;DHT22;4130;48.740;9.132;2023-07-31T10:39:55;25.30;92.10
8178;DHT22;4130;48.740;9.132;2023-07-31T10:42:28;25.20;90.90
8178;DHT22;4130;48.740;9.132;2023-07-31T10:44:57;26.00;91.20
8178;DHT22;4130;48.740;9.132;2023-07-31T10:47:24;24.60;91.50
8178;DHT22;4130;48.740;9.132;2023-07-31T10:49:53;24.60;91.70
8178;DHT22;4130;48.740;9.132;2023-07-31T10:52:20;24.40;91.50
8178;DHT22;4130;48.740;9.132;2023-07-31T10:54:49;24.30;91.10
8178;DHT22;4130;48.740;9.132;2023-07-31T10:57:20;24.30;91.60
8178;DHT22;4130;48.740;9.132;2023-07-31T10:59:47;24.50;91.30
8178;DHT22;4130;48.740;9.132;2023-07-31T11:02:24;24.90;91.50
8178;DHT22;4130;48.740;9.132;2023-07-31T11:05:08;25.20;90.90
8178;DHT22;4130;48.740;9.132;2023-07-31T11:07:48;24.90;90.10
8178;DHT22;4130;48.740;9.132;2023-07-31T11:10:17;24.40;90.40
8178;DHT22;4130;48.740;9.132;2023-07-31T11:12:45;24.30;91.30
8178;DHT22;4130;48.740;9.132;2023-07-31T11:15:11;23.90;90.90
8178;DHT22;4130;48.740;9.132;2023-07-31T11:17:38;23.50;91.50
8178;DHT22;4130;48.740;9.132;2023-07-31T11:20:08;23.80;91.50
8178;DHT22;4130;48.740;9.132;2023-07-31T11:22:35;23.90;91.50
8178;DHT22;4130;48.740;9.132;2023-07-31T11:25:03;24.30;91.10
8178;DHT22;4130;48.740;9.132;2023-07-31T11:27:30;24.50;91.60
8178;DHT22;4130;48.740;9.132;2023-07-31T11:30:00;23.30;91.50
8178;DHT22;4130;48.740;9.132;2023-07-31T11:32:27;23.90;92.00
8178;DHT22;4130;48.740;9.132;2023-07-31T11:34:54;23.00;92.20
8178;DHT22;4130;48.740;9.132;2023-07-31T11:37:22;22.80;91.60
8178;DHT22;4130;48.740;9.132;2023-07-31T11:39:59;23.00;92.40
8178;DHT22;4130;48.740;9.132;2023-07-31T11:42:26;23.30;92.40
8178;DHT22;4130;48.740;9.132;2023-07-31T11:44:53;23.30;91.50
8178;DHT22;4130;48.740;9.132;2023-07-31T11:47:20;23.40;91.90
8178;DHT22;4130;48.740;9.132;2023-07-31T11:49:48;23.40;91.90
8178;DHT22;4130;48.740;9.132;2023-07-31T11:52:15;23.40;92.10
8178;DHT22;4130;48.740;9.132;2023-07-31T11:54:43;24.10;92.30
8178;DHT22;4130;48.740;9.132;2023-07-31T11:57:10;23.60;92.10
8178;DHT22;4130;48.740;9.132;2023-07-31T11:59:38;23.30;91.70
8178;DHT22;4130;48.740;9.132;2023-07-31T12:02:05;23.10;92.30
8178;DHT22;4130;48.740;9.132;2023-07-31T12:04:32;23.00;92.00
8178;DHT22;4130;48.740;9.132;2023-07-31T12:07:00;23.00;92.20
8178;DHT22;4130;48.740;9.132;2023-07-31T12:09:27;23.00;92.20
8178;DHT22;4130;48.740;9.132;2023-07-31T12:11:55;23.10;91.90
8178;DHT22;4130;48.740;9.132;2023-07-31T12:14:25;23.00;92.50
8178;DHT22;4130;48.740;9.132;2023-07-31T12:16:55;23.20;92.90
8178;DHT22;4130;48.740;9.132;2023-07-31T12:19:22;23.40;92.80
8178;DHT22;4130;48.740;9.132;2023-07-31T12:21:49;23.40;92.20
8178;DHT22;4130;48.740;9.132;2023-07-31T12:24:18;23.40;92.20
8178;DHT22;4130;48.740;9.132;2023-07-31T12:26:46;23.40;92.30
8178;DHT22;4130;48.740;9.132;2023-07-31T12:29:14;23.30;92.40
8178;DHT22;4130;48.740;9.132;2023-07-31T12:31:41;23.30;92.00
8178;DHT22;4130;48.740;9.132;2023-07-31T12:34:15;23.10;91.80
8178;DHT22;4130;48.740;9.132;2023-07-31T12:36:43;23.00;92.10
8178;DHT22;4130;48.740;9.132;2023-07-31T12:39:10;22.70;91.90
8178;DHT22;4130;48.740;9.132;2023-07-31T12:41:36;22.60;92.50
8178;DHT22;4130;48.740;9.132;2023-07-31T12:44:03;22.50;92.40
8178;DHT22;4130;48.740;9.132;2023-07-31T12:46:31;22.40;92.80
8178;DHT22;4130;48.740;9.132;2023-07-31T12:48:58;22.40;92.80
8178;DHT22;4130;48.740;9.132;2023-07-31T12:51:25;22.30;92.90
8178;DHT22;4130;48.740;9.132;2023-07-31T12:53:52;22.30;92.80
8178;DHT22;4130;48.740;9.132;2023-07-31T12:56:18;22.40;93.10
8178;DHT22;4130;48.740;9.132;2023-07-31T12:58:45;22.60;92.90
8178;DHT22;4130;48.740;9.132;2023-07-31T13:01:12;24.10;93.40
8178;DHT22;4130;48.740;9.132;2023-07-31T13:03:40;23.80;92.50
8178;DHT22;4130;48.740;9.132;2023-07-31T13:06:06;23.70;92.90
8178;DHT22;4130;48.740;9.132;2023-07-31T13:08:33;24.50;92.90
8178;DHT22;4130;48.740;9.132;2023-07-31T13:11:00;23.80;92.10
8178;DHT22;4130;48.740;9.132;2023-07-31T13:13:27;23.90;91.40
8178;DHT22;4130;48.740;9.132;2023-07-31T13:15:54;23.70;91.30
8178;DHT22;4130;48.740;9.132;2023-07-31T13:18:21;23.70;91.20
8178;DHT22;4130;48.740;9.132;2023-07-31T13:20:49;23.70;91.40
8178;DHT22;4130;48.740;9.132;2023-07-31T13:23:16;24.10;91.40
8178;DHT22;4130;48.740;9.132;2023-07-31T13:25:43;24.20;91.90
8178;DHT22;4130;48.740;9.132;2023-07-31T13:28:09;24.80;91.70
8178;DHT22;4130;48.740;9.132;2023-07-31T13:30:36;25.00;91.70
8178;DHT22;4130;48.740;9.132;2023-07-31T13:33:03;24.40;91.20
8178;DHT22;4130;48.740;9.132;2023-07-31T13:35:30;24.30;91.60
8178;DHT22;4130;48.740;9.132;2023-07-31T13:37:58;24.30;91.40
8178;DHT22;4130;48.740;9.132;2023-07-31T13:40:25;24.10;91.50
8178;DHT22;4130;48.740;9.132;2023-07-31T13:42:52;23.80;91.20
8178;DHT22;4130;48.740;9.132;2023-07-31T13:45:20;23.40;92.10
8178;DHT22;4130;48.740;9.132;2023-07-31T13:47:46;24.10;92.00
8178;DHT22;4130;48.740;9.132;2023-07-31T13:50:13;23.50;91.80
8178;DHT22;4130;48.740;9.132;2023-07-31T13:52:41;23.30;91.70
8178;DHT22;4130;48.740;9.132;2023-07-31T13:55:09;23.10;91.80
8178;DHT22;4130;48.740;9.132;2023-07-31T13:57:36;23.00;92.60
8178;DHT22;4130;48.740;9.132;2023-07-31T14:00:04;23.60;92.40
8178;DHT22;4130;48.740;9.132;2023-07-31T14:02:30;23.00;92.30
8178;DHT22;4130;48.740;9.132;2023-07-31T14:04:57;23.00;92.80
8178;DHT22;4130;48.740;9.132;2023-07-31T14:07:24;23.00;92.50
8178;DHT22;4130;48.740;9.132;2023-07-31T14:09:50;23.90;92.80
8178;DHT22;4130;48.740;9.132;2023-07-31T14:12:19;23.00;92.60
8178;DHT22;4130;48.740;9.132;2023-07-31T14:14:45;23.00;92.90
8178;DHT22;4130;48.740;9.132;2023-07-31T14:17:12;23.10;92.60
8178;DHT22;4130;48.740;9.132;2023-07-31T14:19:39;23.00;92.50
8178;DHT22;4130;48.740;9.132;2023-07-31T14:22:06;23.00;92.40
8178;DHT22;4130;48.740;9.132;2023-07-31T14:24:32;23.20;92.80
8178;DHT22;4130;48.740;9.132;2023-07-31T14:26:59;23.20;93.10
8178;DHT22;4130;48.740;9.132;2023-07-31T14:29:29;23.20;93.10
8178;DHT22;4130;48.740;9.132;2023-07-31T14:31:56;23.20;92.70
8178;DHT22;4130;48.740;9.132;2023-07-31T14:34:22;23.20;92.90
8178;DHT22;4130;48.740;9.132;2023-07-31T14:36:49;23.30;92.70
8178;DHT22;4130;48.740;9.132;2023-07-31T14:39:16;23.50;93.20
8178;DHT22;4130;48.740;9.132;2023-07-31T14:41:43;24.00;93.20
8178;DHT22;4130;48.740;9.132;2023-07-31T14:44:10;24.60;94.00
8178;DHT22;4130;48.740;9.132;2023-07-31T14:46:38;23.60;92.70
8178;DHT22;4130;48.740;9.132;2023-07-31T14:49:04;23.70;92.00
8178;DHT22;4130;48.740;9.132;2023-07-31T14:51:31;24.10;91.70
8178;DHT22;4130;48.740;9.132;2023-07-31T14:53:58;24.30;92.00
8178;DHT22;4130;48.740;9.132;2023-07-31T14:56:24;24.20;91.80
8178;DHT22;4130;48.740;9.132;2023-07-31T14:58:52;23.70;91.30
8178;DHT22;4130;48.740;9.132;2023-07-31T15:01:18;23.80;91.50
8178;DHT22;4130;48.740;9.132;2023-07-31T15:03:47;23.70;91.60
8178;DHT22;4130;48.740;9.132;2023-07-31T15:06:13;24.00;92.00
8178;DHT22;4130;48.740;9.132;2023-07-31T15:08:40;25.00;91.40
8178;DHT22;4130;48.740;9.132;2023-07-31T15:11:09;24.00;91.00
8178;DHT22;4130;48.740;9.132;2023-07-31T15:13:36;23.90;91.40
8178;DHT22;4130;48.740;9.132;2023-07-31T15:16:03;23.80;91.00
8178;DHT22;4130;48.740;9.132;2023-07-31T15:18:29;23.70;91.40
8178;DHT22;4130;48.740;9.132;2023-07-31T15:20:57;23.90;91.50
8178;DHT22;4130;48.740;9.132;2023-07-31T15:23:24;23.80;91.40
8178;DHT22;4130;48.740;9.132;2023-07-31T15:25:51;23.90;90.90
8178;DHT22;4130;48.740;9.132;2023-07-31T15:28:18;23.80;90.90
8178;DHT22;4130;48.740;9.132;2023-07-31T15:30:45;24.00;91.60
8178;DHT22;4130;48.740;9.132;2023-07-31T15:33:12;24.10;91.70
8178;DHT22;4130;48.740;9.132;2023-07-31T15:35:39;24.30;91.80
8178;DHT22;4130;48.740;9.132;2023-07-31T15:38:07;24.30;91.40
8178;DHT22;4130;48.740;9.132;2023-07-31T15:40:34;24.40;91.80
8178;DHT22;4130;48.740;9.132;2023-07-31T15:43:01;25.00;91.90
8178;DHT22;4130;48.740;9.132;2023-07-31T15:45:28;24.30;91.30
8178;DHT22;4130;48.740;9.132;2023-07-31T15:47:55;24.80;91.10
8178;DHT22;4130;48.740;9.132;2023-07-31T15:50:22;24.00;91.40
8178;DHT22;4130;48.740;9.132;2023-07-31T15:52:49;24.10;91.60
8178;DHT22;4130;48.740;9.132;2023-07-31T15:55:18;23.80;91.50
8178;DHT22;4130;48.740;9.132;2023-07-31T15:57:44;23.80;91.40
8178;DHT22;4130;48.740;9.132;2023-07-31T16:00:12;23.80;91.50
8178;DHT22;4130;48.740;9.132;2023-07-31T16:02:38;23.80;92.00
8178;DHT22;4130;48.740;9.132;2023-07-31T16:05:06;24.30;91.90